sensor_id;sensor_type;location;lat;lon;timestamp;temperature;humidity
5697;DHT22;2873;50.966;7.210;2022-12-13T00:01:39;-0.50;99.90
5697;DHT22;2873;50.966;7.210;2022-12-13T00:04:06;-0.50;99.90
5697;DHT22;2873;50.966;7.210;2022-12-13T00:06:33;-0.60;99.90
5697;DHT22;2873;50.966;7.210;2022-12-13T00:09:00;-0.60;99.90
5697;DHT22;2873;50.966;7.210;2022-12-13T00:11:26;-0.60;99.90
5697;DHT22;2873;50.966;7.210;2022-12-13T00:13:53;-0.70;99.90
5697;DHT22;2873;50.966;7.210;2022-12-13T00:16:20;-0.60;99.90
5697;DHT22;2873;50.966;7.210;2022-12-13T00:18:51;-0.70;99.90
5697;DHT22;2873;50.966;7.210;2022-12-13T00:21:18;-0.70;99.90
5697;DHT22;2873;50.966;7.210;2022-12-13T00:23:45;-0.80;99.90
5697;DHT22;2873;50.966;7.210;2022-12-13T00:26:14;-0.80;99.90
5697;DHT22;2873;50.966;7.210;2022-12-13T00:28:40;-0.80;99.90
5697;DHT22;2873;50.966;7.210;2022-12-13T00:31:07;-0.80;99.90
5697;DHT22;2873;50.966;7.210;2022-12-13T00:33:33;-0.90;99.90
5697;DHT22;2873;50.966;7.210;2022-12-13T00:35:58;-0.90;99.90
5697;DHT22;2873;50.966;7.210;2022-12-13T00:38:27;-0.80;99.90
5697;DHT22;2873;50.966;7.210;2022-12-13T00:40:52;-0.90;99.90
5697;DHT22;2873;50.966;7.210;2022-12-13T00:43:18;-0.80;99.90
5697;DHT22;2873;50.966;7.210;2022-12-13T00:45:44;-0.90;99.90
5697;DHT22;2873;50.966;7.210;2022-12-13T00:48:09;-0.90;99.90
5697;DHT22;2873;50.966;7.210;2022-12-13T00:50:36;-0.90;99.90
5697;DHT22;2873;50.966;7.210;2022-12-13T00:53:02;-1.00;99.90
5697;DHT22;2873;50.966;7.210;2022-12-13T00:55:28;-1.00;99.90
5697;DHT22;2873;50.966;7.210;2022-12-13T00:57:53;-1.00;99.90
5697;DHT22;2873;50.966;7.210;2022-12-13T01:00:20;-1.10;99.90
5697;DHT22;2873;50.966;7.210;2022-12-13T01:02:46;-1.10;99.90
5697;DHT22;2873;50.966;7.210;2022-12-13T01:05:12;-1.10;99.90
5697;DHT22;2873;50.966;7.210;2022-12-13T01:07:38;-1.10;99.90
5697;DHT22;2873;50.966;7.210;2022-12-13T01:10:05;-1.10;99.90
5697;DHT22;2873;50.966;7.210;2022-12-13T01:12:32;-1.20;99.90
5697;DHT22;2873;50.966;7.210;2022-12-13T01:14:57;-1.20;99.90
5697;DHT22;2873;50.966;7.210;2022-12-13T01:17:23;-1.20;99.90
5697;DHT22;2873;50.966;7.210;2022-12-13T01:19:48;-1.20;99.90
5697;DHT22;2873;50.966;7.210;2022-12-13T01:22:15;-1.20;99.90
5697;DHT22;2873;50.966;7.210;2022-12-13T01:24:40;-1.20;99.90
5697;DHT22;2873;50.966;7.210;2022-12-13T01:27:06;-1.20;99.90
5697;DHT22;2873;50.966;7.210;2022-12-13T01:29:31;-1.20;99.90
5697;DHT22;2873;50.966;7.210;2022-12-13T01:31:57;-1.30;99.90
5697;DHT22;2873;50.966;7.210;2022-12-13T01:34:23;-1.30;99.90
5697;DHT22;2873;50.966;7.210;2022-12-13T01:36:49;-1.30;99.90
5697;DHT22;2873;50.966;7.210;2022-12-13T01:39:17;-1.30;99.90
5697;DHT22;2873;50.966;7.210;2022-12-13T01:41:46;-1.30;99.90
5697;DHT22;2873;50.966;7.210;2022-12-13T01:47:18;-1.30;99.90
5697;DHT22;2873;50.966;7.210;2022-12-13T01:49:46;-1.40;99.90
5697;DHT22;2873;50.966;7.210;2022-12-13T01:52:13;-1.40;99.90
5697;DHT22;2873;50.966;7.210;2022-12-13T01:54:45;-1.40;99.90
5697;DHT22;2873;50.966;7.210;2022-12-13T01:57:12;-1.40;99.90
5697;DHT22;2873;50.966;7.210;2022-12-13T01:59:40;-1.40;99.90
5697;DHT22;2873;50.966;7.210;2022-12-13T02:02:08;-1.50;99.90
5697;DHT22;2873;50.966;7.210;2022-12-13T02:04:41;-1.50;99.90
5697;DHT22;2873;50.966;7.210;2022-12-13T02:07:08;-1.50;99.90
5697;DHT22;2873;50.966;7.210;2022-12-13T02:09:34;-1.50;99.90
5697;DHT22;2873;50.966;7.210;2022-12-13T02:12:01;-1.50;99.90
5697;DHT22;2873;50.966;7.210;2022-12-13T02:14:28;-1.60;99.90
5697;DHT22;2873;50.966;7.210;2022-12-13T02:20:04;-1.60;99.90
5697;DHT22;2873;50.966;7.210;2022-12-13T02:33:53;-1.60;99.90
5697;DHT22;2873;50.966;7.210;2022-12-13T02:36:28;-1.60;99.90
5697;DHT22;2873;50.966;7.210;2022-12-13T02:39:19;-1.70;99.90
5697;DHT22;2873;50.966;7.210;2022-12-13T02:41:53;-1.60;99.90
5697;DHT22;2873;50.966;7.210;2022-12-13T02:44:33;-1.70;99.90
5697;DHT22;2873;50.966;7.210;2022-12-13T02:47:17;-1.70;99.90
5697;DHT22;2873;50.966;7.210;2022-12-13T02:49:48;-1.70;99.90
5697;DHT22;2873;50.966;7.210;2022-12-13T02:52:17;-1.70;99.90
5697;DHT22;2873;50.966;7.210;2022-12-13T02:54:43;-1.70;99.90
5697;DHT22;2873;50.966;7.210;2022-12-13T02:57:31;-1.80;99.90
5697;DHT22;2873;50.966;7.210;2022-12-13T03:00:10;-1.80;99.90
5697;DHT22;2873;50.966;7.210;2022-12-13T03:03:10;-1.80;99.90
5697;DHT22;2873;50.966;7.210;2022-12-13T03:11:10;-1.80;99.90
5697;DHT22;2873;50.966;7.210;2022-12-13T03:13:55;-1.80;99.90
5697;DHT22;2873;50.966;7.210;2022-12-13T03:16:43;-1.80;99.90
5697;DHT22;2873;50.966;7.210;2022-12-13T03:19:10;-1.90;99.90
5697;DHT22;2873;50.966;7.210;2022-12-13T03:21:48;-1.90;99.90
5697;DHT22;2873;50.966;7.210;2022-12-13T03:24:16;-1.80;99.90
5697;DHT22;2873;50.966;7.210;2022-12-13T03:26:42;-1.80;99.90
5697;DHT22;2873;50.966;7.210;2022-12-13T03:29:08;-1.90;99.90
5697;DHT22;2873;50.966;7.210;2022-12-13T03:31:34;-1.90;99.90
5697;DHT22;2873;50.966;7.210;2022-12-13T03:34:00;-1.80;99.90
5697;DHT22;2873;50.966;7.210;2022-12-13T03:36:25;-1.90;99.90
5697;DHT22;2873;50.966;7.210;2022-12-13T03:38:53;-2.00;99.90
5697;DHT22;2873;50.966;7.210;2022-12-13T03:41:22;-2.00;99.90
5697;DHT22;2873;50.966;7.210;2022-12-13T03:43:48;-2.00;99.90
5697;DHT22;2873;50.966;7.210;2022-12-13T03:46:14;-2.00;99.90
5697;DHT22;2873;50.966;7.210;2022-12-13T03:48:40;-2.10;99.90
5697;DHT22;2873;50.966;7.210;2022-12-13T03:51:05;-2.00;99.90
5697;DHT22;2873;50.966;7.210;2022-12-13T03:53:31;-2.10;99.90
5697;DHT22;2873;50.966;7.210;2022-12-13T03:55:57;-2.10;99.90
5697;DHT22;2873;50.966;7.210;2022-12-13T03:58:22;-2.20;99.90
5697;DHT22;2873;50.966;7.210;2022-12-13T04:00:48;-2.20;99.90
5697;DHT22;2873;50.966;7.210;2022-12-13T04:03:14;-2.20;99.90
5697;DHT22;2873;50.966;7.210;2022-12-13T04:05:39;-2.20;99.90
5697;DHT22;2873;50.966;7.210;2022-12-13T04:08:05;-2.30;99.90
5697;DHT22;2873;50.966;7.210;2022-12-13T04:10:31;-2.20;99.90
5697;DHT22;2873;50.966;7.210;2022-12-13T04:12:57;-2.30;99.90
5697;DHT22;2873;50.966;7.210;2022-12-13T04:15:41;-2.20;99.90
5697;DHT22;2873;50.966;7.210;2022-12-13T04:18:14;-2.30;99.90
5697;DHT22;2873;50.966;7.210;2022-12-13T04:20:40;-2.30;99.90
5697;DHT22;2873;50.966;7.210;2022-12-13T04:23:06;-2.30;99.90
5697;DHT22;2873;50.966;7.210;2022-12-13T04:25:31;-2.40;99.90
5697;DHT22;2873;50.966;7.210;2022-12-13T04:27:57;-2.50;99.90
5697;DHT22;2873;50.966;7.210;2022-12-13T04:30:22;-2.50;99.90
5697;DHT22;2873;50.966;7.210;2022-12-13T04:32:48;-2.50;99.90
5697;DHT22;2873;50.966;7.210;2022-12-13T04:35:14;-2.50;99.90
5697;DHT22;2873;50.966;7.210;2022-12-13T04:37:39;-2.50;99.90
5697;DHT22;2873;50.966;7.210;2022-12-13T04:40:05;-2.60;99.90
5697;DHT22;2873;50.966;7.210;2022-12-13T04:42:31;-2.60;99.90
5697;DHT22;2873;50.966;7.210;2022-12-13T04:44:57;-2.70;99.90
5697;DHT22;2873;50.966;7.210;2022-12-13T04:47:22;-2.70;99.90
5697;DHT22;2873;50.966;7.210;2022-12-13T04:49:48;-2.70;99.90
5697;DHT22;2873;50.966;7.210;2022-12-13T04:52:13;-2.70;99.90
5697;DHT22;2873;50.966;7.210;2022-12-13T04:54:39;-2.70;99.90
5697;DHT22;2873;50.966;7.210;2022-12-13T04:57:06;-2.70;99.90
5697;DHT22;2873;50.966;7.210;2022-12-13T04:59:32;-2.70;99.90
5697;DHT22;2873;50.966;7.210;2022-12-13T05:01:57;-2.50;99.90
5697;DHT22;2873;50.966;7.210;2022-12-13T05:04:23;-2.70;99.90
5697;DHT22;2873;50.966;7.210;2022-12-13T05:06:49;-2.80;99.90
5697;DHT22;2873;50.966;7.210;2022-12-13T05:09:14;-2.80;99.90
5697;DHT22;2873;50.966;7.210;2022-12-13T05:11:39;-2.80;99.90
5697;DHT22;2873;50.966;7.210;2022-12-13T05:14:05;-3.00;99.90
5697;DHT22;2873;50.966;7.210;2022-12-13T05:16:31;-2.90;99.90
5697;DHT22;2873;50.966;7.210;2022-12-13T05:18:56;-3.00;99.90
5697;DHT22;2873;50.966;7.210;2022-12-13T05:21:22;-3.00;99.90
5697;DHT22;2873;50.966;7.210;2022-12-13T05:23:47;-2.90;99.90
5697;DHT22;2873;50.966;7.210;2022-12-13T05:26:13;-3.10;99.90
5697;DHT22;2873;50.966;7.210;2022-12-13T05:28:38;-3.10;99.90
5697;DHT22;2873;50.966;7.210;2022-12-13T05:31:09;-3.10;99.90
5697;DHT22;2873;50.966;7.210;2022-12-13T05:33:36;-3.30;99.90
5697;DHT22;2873;50.966;7.210;2022-12-13T05:36:01;-3.30;99.90
5697;DHT22;2873;50.966;7.210;2022-12-13T05:38:27;-3.30;99.90
5697;DHT22;2873;50.966;7.210;2022-12-13T05:40:53;-3.30;99.90
5697;DHT22;2873;50.966;7.210;2022-12-13T05:43:19;-3.40;99.90
5697;DHT22;2873;50.966;7.210;2022-12-13T05:45:45;-3.30;99.90
5697;DHT22;2873;50.966;7.210;2022-12-13T05:48:10;-3.40;99.90
5697;DHT22;2873;50.966;7.210;2022-12-13T05:50:36;-3.40;99.90
5697;DHT22;2873;50.966;7.210;2022-12-13T05:53:03;-3.50;99.90
5697;DHT22;2873;50.966;7.210;2022-12-13T05:55:29;-3.40;99.90
5697;DHT22;2873;50.966;7.210;2022-12-13T05:57:54;-3.50;99.90
5697;DHT22;2873;50.966;7.210;2022-12-13T06:00:20;-3.50;99.90
5697;DHT22;2873;50.966;7.210;2022-12-13T06:02:45;-3.30;99.90
5697;DHT22;2873;50.966;7.210;2022-12-13T06:05:11;-3.50;99.90
5697;DHT22;2873;50.966;7.210;2022-12-13T06:07:37;-3.50;99.90
5697;DHT22;2873;50.966;7.210;2022-12-13T06:10:04;-3.60;99.90
5697;DHT22;2873;50.966;7.210;2022-12-13T06:12:30;-3.60;99.90
5697;DHT22;2873;50.966;7.210;2022-12-13T06:14:55;-3.60;99.90
5697;DHT22;2873;50.966;7.210;2022-12-13T06:17:21;-3.60;99.90
5697;DHT22;2873;50.966;7.210;2022-12-13T06:19:49;-3.60;99.90
5697;DHT22;2873;50.966;7.210;2022-12-13T06:22:15;-3.70;99.90
5697;DHT22;2873;50.966;7.210;2022-12-13T06:24:41;-3.70;99.90
5697;DHT22;2873;50.966;7.210;2022-12-13T06:27:06;-3.80;99.90
5697;DHT22;2873;50.966;7.210;2022-12-13T06:29:32;-3.70;99.90
5697;DHT22;2873;50.966;7.210;2022-12-13T06:31:59;-3.90;99.90
5697;DHT22;2873;50.966;7.210;2022-12-13T06:34:25;-4.00;99.90
5697;DHT22;2873;50.966;7.210;2022-12-13T06:36:51;-3.90;99.90
5697;DHT22;2873;50.966;7.210;2022-12-13T06:39:17;-3.70;99.90
5697;DHT22;2873;50.966;7.210;2022-12-13T06:41:42;-4.00;99.90
5697;DHT22;2873;50.966;7.210;2022-12-13T06:44:08;-4.00;99.90
5697;DHT22;2873;50.966;7.210;2022-12-13T06:46:36;-3.90;99.90
5697;DHT22;2873;50.966;7.210;2022-12-13T06:49:02;-3.90;99.90
5697;DHT22;2873;50.966;7.210;2022-12-13T06:51:28;-3.60;99.90
5697;DHT22;2873;50.966;7.210;2022-12-13T06:53:54;-3.80;99.90
5697;DHT22;2873;50.966;7.210;2022-12-13T06:56:20;-3.80;99.90
5697;DHT22;2873;50.966;7.210;2022-12-13T06:58:46;-3.80;99.90
5697;DHT22;2873;50.966;7.210;2022-12-13T07:01:14;-3.90;99.90
5697;DHT22;2873;50.966;7.210;2022-12-13T07:03:40;-3.90;99.90
5697;DHT22;2873;50.966;7.210;2022-12-13T07:06:09;-3.90;99.90
5697;DHT22;2873;50.966;7.210;2022-12-13T07:08:36;-3.90;99.90
5697;DHT22;2873;50.966;7.210;2022-12-13T07:11:02;-4.00;99.90
5697;DHT22;2873;50.966;7.210;2022-12-13T07:13:27;-4.00;99.90
5697;DHT22;2873;50.966;7.210;2022-12-13T07:15:53;-4.10;99.90
5697;DHT22;2873;50.966;7.210;2022-12-13T07:18:18;-4.00;99.90
5697;DHT22;2873;50.966;7.210;2022-12-13T07:20:44;-4.00;99.90
5697;DHT22;2873;50.966;7.210;2022-12-13T07:23:11;-3.90;99.90
5697;DHT22;2873;50.966;7.210;2022-12-13T07:25:36;-4.00;99.90
5697;DHT22;2873;50.966;7.210;2022-12-13T07:28:05;-3.90;99.90
5697;DHT22;2873;50.966;7.210;2022-12-13T07:30:36;-3.80;99.90
5697;DHT22;2873;50.966;7.210;2022-12-13T07:33:02;-3.70;99.90
5697;DHT22;2873;50.966;7.210;2022-12-13T07:35:28;-3.70;99.90
5697;DHT22;2873;50.966;7.210;2022-12-13T07:37:54;-3.70;99.90
5697;DHT22;2873;50.966;7.210;2022-12-13T07:40:20;-3.60;99.90
5697;DHT22;2873;50.966;7.210;2022-12-13T07:42:52;-3.60;99.90
5697;DHT22;2873;50.966;7.210;2022-12-13T07:45:19;-3.50;99.90
5697;DHT22;2873;50.966;7.210;2022-12-13T07:47:45;-3.50;99.90
5697;DHT22;2873;50.966;7.210;2022-12-13T07:50:10;-3.20;99.90
5697;DHT22;2873;50.966;7.210;2022-12-13T07:52:36;-3.40;99.90
5697;DHT22;2873;50.966;7.210;2022-12-13T07:55:02;-3.30;99.90
5697;DHT22;2873;50.966;7.210;2022-12-13T07:57:29;-3.30;99.90
5697;DHT22;2873;50.966;7.210;2022-12-13T07:59:54;-3.30;99.90
5697;DHT22;2873;50.966;7.210;2022-12-13T08:02:20;-3.20;99.90
5697;DHT22;2873;50.966;7.210;2022-12-13T08:04:46;-3.20;99.90
5697;DHT22;2873;50.966;7.210;2022-12-13T08:07:11;-3.10;99.90
5697;DHT22;2873;50.966;7.210;2022-12-13T08:09:37;-2.90;99.90
5697;DHT22;2873;50.966;7.210;2022-12-13T08:12:03;-3.00;99.90
5697;DHT22;2873;50.966;7.210;2022-12-13T08:14:29;-2.90;99.90
5697;DHT22;2873;50.966;7.210;2022-12-13T08:16:55;-2.70;99.90
5697;DHT22;2873;50.966;7.210;2022-12-13T08:19:21;-2.60;99.90
5697;DHT22;2873;50.966;7.210;2022-12-13T08:21:47;-2.30;99.90
5697;DHT22;2873;50.966;7.210;2022-12-13T08:24:12;-2.10;99.90
5697;DHT22;2873;50.966;7.210;2022-12-13T08:26:38;-1.80;99.90
5697;DHT22;2873;50.966;7.210;2022-12-13T08:29:04;-1.50;99.90
5697;DHT22;2873;50.966;7.210;2022-12-13T08:31:29;-1.10;99.90
5697;DHT22;2873;50.966;7.210;2022-12-13T08:33:55;-0.70;99.90
5697;DHT22;2873;50.966;7.210;2022-12-13T08:36:21;-0.30;99.90
5697;DHT22;2873;50.966;7.210;2022-12-13T08:38:49;0.10;99.90
5697;DHT22;2873;50.966;7.210;2022-12-13T08:41:18;0.40;99.90
5697;DHT22;2873;50.966;7.210;2022-12-13T08:43:44;0.60;99.90
5697;DHT22;2873;50.966;7.210;2022-12-13T08:46:10;1.00;99.90
5697;DHT22;2873;50.966;7.210;2022-12-13T08:48:36;1.50;99.90
5697;DHT22;2873;50.966;7.210;2022-12-13T08:51:03;1.70;99.90
5697;DHT22;2873;50.966;7.210;2022-12-13T08:53:29;2.20;99.90
5697;DHT22;2873;50.966;7.210;2022-12-13T08:56:02;2.60;99.90
5697;DHT22;2873;50.966;7.210;2022-12-13T08:58:28;2.90;99.90
5697;DHT22;2873;50.966;7.210;2022-12-13T09:00:54;3.40;99.90
5697;DHT22;2873;50.966;7.210;2022-12-13T09:03:19;3.70;99.90
5697;DHT22;2873;50.966;7.210;2022-12-13T09:05:45;4.00;99.90
5697;DHT22;2873;50.966;7.210;2022-12-13T09:08:11;4.30;99.90
5697;DHT22;2873;50.966;7.210;2022-12-13T09:10:36;4.60;99.90
5697;DHT22;2873;50.966;7.210;2022-12-13T09:13:02;4.60;99.90
5697;DHT22;2873;50.966;7.210;2022-12-13T09:15:29;4.80;99.90
5697;DHT22;2873;50.966;7.210;2022-12-13T09:17:55;4.90;99.90
5697;DHT22;2873;50.966;7.210;2022-12-13T09:20:21;4.90;99.90
5697;DHT22;2873;50.966;7.210;2022-12-13T09:22:47;5.10;99.90
5697;DHT22;2873;50.966;7.210;2022-12-13T09:25:12;5.00;99.90
5697;DHT22;2873;50.966;7.210;2022-12-13T09:27:38;5.20;99.90
5697;DHT22;2873;50.966;7.210;2022-12-13T09:30:04;5.50;99.90
5697;DHT22;2873;50.966;7.210;2022-12-13T09:32:31;5.50;99.90
5697;DHT22;2873;50.966;7.210;2022-12-13T09:34:56;5.20;99.90
5697;DHT22;2873;50.966;7.210;2022-12-13T09:37:22;5.30;99.90
5697;DHT22;2873;50.966;7.210;2022-12-13T09:39:47;5.50;99.90
5697;DHT22;2873;50.966;7.210;2022-12-13T09:42:20;5.70;99.90
5697;DHT22;2873;50.966;7.210;2022-12-13T09:44:53;5.50;99.90
5697;DHT22;2873;50.966;7.210;2022-12-13T09:47:33;5.40;99.90
5697;DHT22;2873;50.966;7.210;2022-12-13T09:50:01;5.30;99.90
5697;DHT22;2873;50.966;7.210;2022-12-13T09:52:37;5.00;99.90
5697;DHT22;2873;50.966;7.210;2022-12-13T09:55:29;5.20;99.90
5697;DHT22;2873;50.966;7.210;2022-12-13T09:57:57;5.30;99.90
5697;DHT22;2873;50.966;7.210;2022-12-13T10:00:31;5.20;99.90
5697;DHT22;2873;50.966;7.210;2022-12-13T10:02:58;5.20;99.90
5697;DHT22;2873;50.966;7.210;2022-12-13T10:05:30;5.10;99.90
5697;DHT22;2873;50.966;7.210;2022-12-13T10:08:07;5.10;99.90
5697;DHT22;2873;50.966;7.210;2022-12-13T10:10:35;5.40;99.90
5697;DHT22;2873;50.966;7.210;2022-12-13T10:13:38;5.50;99.90
5697;DHT22;2873;50.966;7.210;2022-12-13T10:16:11;5.80;99.90
5697;DHT22;2873;50.966;7.210;2022-12-13T10:18:41;5.50;99.90
5697;DHT22;2873;50.966;7.210;2022-12-13T10:21:12;5.50;99.90
5697;DHT22;2873;50.966;7.210;2022-12-13T10:23:38;5.80;99.90
5697;DHT22;2873;50.966;7.210;2022-12-13T10:26:08;5.50;99.90
5697;DHT22;2873;50.966;7.210;2022-12-13T10:28:35;5.50;99.90
5697;DHT22;2873;50.966;7.210;2022-12-13T10:31:01;5.60;99.90
5697;DHT22;2873;50.966;7.210;2022-12-13T10:33:32;5.80;99.90
5697;DHT22;2873;50.966;7.210;2022-12-13T10:36:27;5.80;99.90
5697;DHT22;2873;50.966;7.210;2022-12-13T10:38:54;5.70;99.90
5697;DHT22;2873;50.966;7.210;2022-12-13T10:46:37;6.70;99.90
5697;DHT22;2873;50.966;7.210;2022-12-13T10:49:19;6.90;99.90
5697;DHT22;2873;50.966;7.210;2022-12-13T10:51:45;7.10;99.90
5697;DHT22;2873;50.966;7.210;2022-12-13T10:54:29;7.10;99.90
5697;DHT22;2873;50.966;7.210;2022-12-13T10:56:56;6.80;99.90
5697;DHT22;2873;50.966;7.210;2022-12-13T10:59:25;6.50;99.90
5697;DHT22;2873;50.966;7.210;2022-12-13T11:01:52;6.20;99.90
5697;DHT22;2873;50.966;7.210;2022-12-13T11:04:22;6.00;99.90
5697;DHT22;2873;50.966;7.210;2022-12-13T11:06:48;5.70;99.90
5697;DHT22;2873;50.966;7.210;2022-12-13T11:09:26;5.60;99.90
5697;DHT22;2873;50.966;7.210;2022-12-13T11:11:52;5.80;99.90
5697;DHT22;2873;50.966;7.210;2022-12-13T11:14:20;5.60;99.90
5697;DHT22;2873;50.966;7.210;2022-12-13T11:16:55;5.80;99.90
5697;DHT22;2873;50.966;7.210;2022-12-13T11:19:33;6.10;99.90
5697;DHT22;2873;50.966;7.210;2022-12-13T11:22:00;5.70;99.90
5697;DHT22;2873;50.966;7.210;2022-12-13T11:24:31;5.60;99.90
5697;DHT22;2873;50.966;7.210;2022-12-13T11:27:05;5.70;99.90
5697;DHT22;2873;50.966;7.210;2022-12-13T11:35:10;5.70;99.90
5697;DHT22;2873;50.966;7.210;2022-12-13T11:40:43;6.00;99.90
5697;DHT22;2873;50.966;7.210;2022-12-13T11:43:30;6.10;99.90
5697;DHT22;2873;50.966;7.210;2022-12-13T11:45:59;6.00;99.90
5697;DHT22;2873;50.966;7.210;2022-12-13T11:48:46;6.40;99.90
5697;DHT22;2873;50.966;7.210;2022-12-13T11:51:16;5.80;99.90
5697;DHT22;2873;50.966;7.210;2022-12-13T11:53:53;6.20;99.90
5697;DHT22;2873;50.966;7.210;2022-12-13T11:56:24;6.00;99.90
5697;DHT22;2873;50.966;7.210;2022-12-13T12:04:01;5.80;99.90
5697;DHT22;2873;50.966;7.210;2022-12-13T12:06:56;5.60;99.90
5697;DHT22;2873;50.966;7.210;2022-12-13T12:09:25;5.80;99.90
5697;DHT22;2873;50.966;7.210;2022-12-13T12:12:07;6.10;99.90
5697;DHT22;2873;50.966;7.210;2022-12-13T12:17:12;6.30;99.90
5697;DHT22;2873;50.966;7.210;2022-12-13T12:19:40;6.40;99.90
5697;DHT22;2873;50.966;7.210;2022-12-13T12:25:23;6.00;99.90
5697;DHT22;2873;50.966;7.210;2022-12-13T12:39:15;6.30;99.90
5697;DHT22;2873;50.966;7.210;2022-12-13T12:42:00;6.20;99.90
5697;DHT22;2873;50.966;7.210;2022-12-13T12:50:18;6.10;99.90
5697;DHT22;2873;50.966;7.210;2022-12-13T12:59:00;5.50;99.90
5697;DHT22;2873;50.966;7.210;2022-12-13T13:01:50;5.40;99.90
5697;DHT22;2873;50.966;7.210;2022-12-13T13:04:20;5.40;99.90
5697;DHT22;2873;50.966;7.210;2022-12-13T13:06:50;5.50;99.90
5697;DHT22;2873;50.966;7.210;2022-12-13T13:09:20;5.50;99.90
5697;DHT22;2873;50.966;7.210;2022-12-13T13:11:46;5.80;99.90
5697;DHT22;2873;50.966;7.210;2022-12-13T13:14:31;5.90;99.90
5697;DHT22;2873;50.966;7.210;2022-12-13T13:19:44;6.30;99.90
5697;DHT22;2873;50.966;7.210;2022-12-13T13:25:29;6.50;99.90
5697;DHT22;2873;50.966;7.210;2022-12-13T13:30:35;6.20;99.90
5697;DHT22;2873;50.966;7.210;2022-12-13T13:33:01;6.00;99.90
5697;DHT22;2873;50.966;7.210;2022-12-13T13:38:03;5.80;99.90
5697;DHT22;2873;50.966;7.210;2022-12-13T13:40:38;5.30;99.90
5697;DHT22;2873;50.966;7.210;2022-12-13T13:48:44;4.70;99.90
5697;DHT22;2873;50.966;7.210;2022-12-13T14:07:56;4.20;99.90
5697;DHT22;2873;50.966;7.210;2022-12-13T14:15:55;3.80;99.90
5697;DHT22;2873;50.966;7.210;2022-12-13T14:18:31;3.70;99.90
5697;DHT22;2873;50.966;7.210;2022-12-13T14:21:24;3.50;99.90
5697;DHT22;2873;50.966;7.210;2022-12-13T14:27:11;3.30;99.90
5697;DHT22;2873;50.966;7.210;2022-12-13T14:29:42;3.30;99.90
5697;DHT22;2873;50.966;7.210;2022-12-13T14:32:28;3.10;99.90
5697;DHT22;2873;50.966;7.210;2022-12-13T14:34:55;3.00;99.90
5697;DHT22;2873;50.966;7.210;2022-12-13T14:37:28;2.80;99.90
5697;DHT22;2873;50.966;7.210;2022-12-13T14:40:01;2.60;99.90
5697;DHT22;2873;50.966;7.210;2022-12-13T14:42:30;2.70;99.90
5697;DHT22;2873;50.966;7.210;2022-12-13T14:45:35;2.70;99.90
5697;DHT22;2873;50.966;7.210;2022-12-13T14:48:12;2.70;99.90
5697;DHT22;2873;50.966;7.210;2022-12-13T14:50:40;2.70;99.90
5697;DHT22;2873;50.966;7.210;2022-12-13T14:53:36;2.70;99.90
5697;DHT22;2873;50.966;7.210;2022-12-13T14:58:31;2.70;99.90
5697;DHT22;2873;50.966;7.210;2022-12-13T15:00:57;2.70;99.90
5697;DHT22;2873;50.966;7.210;2022-12-13T15:03:25;2.70;99.90
5697;DHT22;2873;50.966;7.210;2022-12-13T15:05:57;2.80;99.90
5697;DHT22;2873;50.966;7.210;2022-12-13T15:08:23;2.70;99.90
5697;DHT22;2873;50.966;7.210;2022-12-13T15:10:52;2.70;99.90
5697;DHT22;2873;50.966;7.210;2022-12-13T15:13:38;2.70;99.90
5697;DHT22;2873;50.966;7.210;2022-12-13T15:16:17;2.80;99.90
5697;DHT22;2873;50.966;7.210;2022-12-13T15:18:44;2.70;99.90
5697;DHT22;2873;50.966;7.210;2022-12-13T15:21:19;2.70;99.90
5697;DHT22;2873;50.966;7.210;2022-12-13T15:23:45;2.60;99.90
5697;DHT22;2873;50.966;7.210;2022-12-13T15:26:14;2.60;99.90
5697;DHT22;2873;50.966;7.210;2022-12-13T15:28:42;2.50;99.90
5697;DHT22;2873;50.966;7.210;2022-12-13T15:31:09;2.40;99.90
5697;DHT22;2873;50.966;7.210;2022-12-13T15:33:35;2.30;99.90
5697;DHT22;2873;50.966;7.210;2022-12-13T15:36:14;2.20;99.90
5697;DHT22;2873;50.966;7.210;2022-12-13T15:41:30;2.20;99.90
5697;DHT22;2873;50.966;7.210;2022-12-13T15:44:00;2.20;99.90
5697;DHT22;2873;50.966;7.210;2022-12-13T15:46:29;2.20;99.90
5697;DHT22;2873;50.966;7.210;2022-12-13T15:48:57;2.20;99.90
5697;DHT22;2873;50.966;7.210;2022-12-13T15:51:23;2.10;99.90
5697;DHT22;2873;50.966;7.210;2022-12-13T15:56:54;2.00;99.90
5697;DHT22;2873;50.966;7.210;2022-12-13T15:59:30;1.90;99.90
5697;DHT22;2873;50.966;7.210;2022-12-13T16:01:56;1.80;99.90
5697;DHT22;2873;50.966;7.210;2022-12-13T16:04:30;1.70;99.90
5697;DHT22;2873;50.966;7.210;2022-12-13T16:06:58;1.70;99.90
5697;DHT22;2873;50.966;7.210;2022-12-13T16:09:28;1.70;99.90
5697;DHT22;2873;50.966;7.210;2022-12-13T16:12:03;1.70;99.90
5697;DHT22;2873;50.966;7.210;2022-12-13T16:16:58;1.60;99.90
5697;DHT22;2873;50.966;7.210;2022-12-13T16:19:24;1.60;99.90
5697;DHT22;2873;50.966;7.210;2022-12-13T16:21:50;1.60;99.90
5697;DHT22;2873;50.966;7.210;2022-12-13T16:24:15;1.60;99.90
5697;DHT22;2873;50.966;7.210;2022-12-13T16:26:45;1.40;99.90
5697;DHT22;2873;50.966;7.210;2022-12-13T16:29:16;1.30;99.90
5697;DHT22;2873;50.966;7.210;2022-12-13T16:31:44;1.10;99.90
5697;DHT22;2873;50.966;7.210;2022-12-13T16:34:10;1.10;99.90
5697;DHT22;2873;50.966;7.210;2022-12-13T16:36:36;1.00;99.90
5697;DHT22;2873;50.966;7.210;2022-12-13T16:39:03;1.10;99.90
5697;DHT22;2873;50.966;7.210;2022-12-13T16:41:30;1.10;99.90
5697;DHT22;2873;50.966;7.210;2022-12-13T16:44:01;1.10;99.90
5697;DHT22;2873;50.966;7.210;2022-12-13T16:46:28;1.10;99.90
5697;DHT22;2873;50.966;7.210;2022-12-13T16:48:54;1.10;99.90
5697;DHT22;2873;50.966;7.210;2022-12-13T16:51:20;1.10;99.90
5697;DHT22;2873;50.966;7.210;2022-12-13T16:53:46;1.10;99.90
5697;DHT22;2873;50.966;7.210;2022-12-13T16:56:12;1.10;99.90
5697;DHT22;2873;50.966;7.210;2022-12-13T16:58:41;1.20;99.90
5697;DHT22;2873;50.966;7.210;2022-12-13T17:01:11;1.20;99.90
5697;DHT22;2873;50.966;7.210;2022-12-13T17:03:38;1.20;99.90
5697;DHT22;2873;50.966;7.210;2022-12-13T17:06:05;1.20;99.90
5697;DHT22;2873;50.966;7.210;2022-12-13T17:08:30;1.20;99.90
5697;DHT22;2873;50.966;7.210;2022-12-13T17:10:57;1.20;99.90
5697;DHT22;2873;50.966;7.210;2022-12-13T17:13:23;1.10;99.90
5697;DHT22;2873;50.966;7.210;2022-12-13T17:15:49;1.10;99.90
5697;DHT22;2873;50.966;7.210;2022-12-13T17:18:14;1.00;99.90
5697;DHT22;2873;50.966;7.210;2022-12-13T17:20:40;0.90;99.90
5697;DHT22;2873;50.966;7.210;2022-12-13T17:23:06;1.00;99.90
5697;DHT22;2873;50.966;7.210;2022-12-13T17:25:35;0.90;99.90
5697;DHT22;2873;50.966;7.210;2022-12-13T17:28:00;0.90;99.90
5697;DHT22;2873;50.966;7.210;2022-12-13T17:30:28;0.90;99.90
5697;DHT22;2873;50.966;7.210;2022-12-13T17:32:57;0.90;99.90
5697;DHT22;2873;50.966;7.210;2022-12-13T17:35:23;0.90;99.90
5697;DHT22;2873;50.966;7.210;2022-12-13T17:37:51;0.80;99.90
5697;DHT22;2873;50.966;7.210;2022-12-13T17:40:17;0.80;99.90
5697;DHT22;2873;50.966;7.210;2022-12-13T17:42:43;0.80;99.90
5697;DHT22;2873;50.966;7.210;2022-12-13T17:45:10;0.80;99.90
5697;DHT22;2873;50.966;7.210;2022-12-13T17:47:36;0.60;99.90
5697;DHT22;2873;50.966;7.210;2022-12-13T17:50:04;0.60;99.90
5697;DHT22;2873;50.966;7.210;2022-12-13T17:52:29;0.60;99.90
5697;DHT22;2873;50.966;7.210;2022-12-13T17:54:55;0.70;99.90
5697;DHT22;2873;50.966;7.210;2022-12-13T17:57:20;0.70;99.90
5697;DHT22;2873;50.966;7.210;2022-12-13T17:59:46;0.80;99.90
5697;DHT22;2873;50.966;7.210;2022-12-13T18:02:12;0.60;99.90
5697;DHT22;2873;50.966;7.210;2022-12-13T18:04:39;0.60;99.90
5697;DHT22;2873;50.966;7.210;2022-12-13T18:07:06;0.60;99.90
5697;DHT22;2873;50.966;7.210;2022-12-13T18:09:32;0.60;99.90
5697;DHT22;2873;50.966;7.210;2022-12-13T18:11:57;0.50;99.90
5697;DHT22;2873;50.966;7.210;2022-12-13T18:14:23;0.50;99.90
5697;DHT22;2873;50.966;7.210;2022-12-13T18:16:49;0.30;99.90
5697;DHT22;2873;50.966;7.210;2022-12-13T18:19:15;0.40;99.90
5697;DHT22;2873;50.966;7.210;2022-12-13T18:21:41;0.30;99.90
5697;DHT22;2873;50.966;7.210;2022-12-13T18:24:08;0.30;99.90